createdAt,value
2023-01-19T00:01:49.921Z,4.33
2023-01-19T00:06:52.007Z,4.72
2023-01-19T00:11:52.863Z,5.20
2023-01-19T00:16:54.181Z,4.93
2023-01-19T00:21:56.361Z,5.07
2023-01-19T00:26:59.222Z,4.75
2023-01-19T00:31:59.684Z,4.18
2023-01-19T00:37:03.161Z,4.60
2023-01-19T00:42:26.946Z,4.75
2023-01-19T00:47:27.210Z,4.75
2023-01-19T00:52:27.772Z,4.50
2023-01-19T00:57:29.679Z,4.35
2023-01-19T01:02:31.770Z,5.40
2023-01-19T01:07:43.789Z,5.30
2023-01-19T01:12:55.555Z,5.32
2023-01-19T01:18:04.263Z,5.15
2023-01-19T01:23:05.645Z,4.45
2023-01-19T01:28:09.323Z,5.15
2023-01-19T01:33:08.434Z,5.50
2023-01-19T01:38:11.280Z,4.53
2023-01-19T01:43:19.545Z,3.70
2023-01-19T01:48:23.946Z,4.30
2023-01-19T01:53:34.113Z,5.15
2023-01-19T01:58:37.134Z,6.30
2023-01-19T02:03:35.843Z,4.97
2023-01-19T02:09:18.797Z,4.25
2023-01-19T02:14:16.743Z,4.30
2023-01-19T02:19:24.765Z,5.18
2023-01-19T02:24:26.592Z,4.97
2023-01-19T02:29:28.593Z,4.50
2023-01-19T02:34:34.395Z,6.05
2023-01-19T02:39:37.718Z,5.80
2023-01-19T02:44:35.848Z,6.28
2023-01-19T02:49:34.940Z,5.20
2023-01-19T02:55:13.256Z,4.80
2023-01-19T03:00:48.818Z,5.55
2023-01-19T03:05:57.520Z,4.35
2023-01-19T03:11:12.668Z,4.13
2023-01-19T03:16:23.389Z,4.45
2023-01-19T03:21:28.453Z,6.00
2023-01-19T03:26:30.563Z,4.20
2023-01-19T03:31:30.931Z,4.70
2023-01-19T03:36:34.826Z,4.78
2023-01-19T03:41:34.605Z,6.15
2023-01-19T03:46:36.450Z,4.65
2023-01-19T03:51:39.973Z,4.30
2023-01-19T03:56:39.719Z,4.95
2023-01-19T04:01:41.722Z,4.10
2023-01-19T04:06:50.858Z,5.47
2023-01-19T04:11:53.303Z,3.80
2023-01-19T04:16:51.542Z,4.47
2023-01-19T04:21:52.792Z,4.75
2023-01-19T04:26:53.919Z,6.93
2023-01-19T04:31:54.849Z,4.18
2023-01-19T04:37:38.991Z,5.25
2023-01-19T04:42:38.639Z,5.00
2023-01-19T04:47:40.810Z,4.50
2023-01-19T04:52:44.688Z,5.40
2023-01-19T04:57:45.954Z,6.05
2023-01-19T05:02:48.355Z,5.53
2023-01-19T05:07:48.576Z,5.10
2023-01-19T05:12:48.227Z,4.18
2023-01-19T05:17:51.045Z,5.30
2023-01-19T05:23:03.077Z,5.30
2023-01-19T05:28:07.899Z,5.50
2023-01-19T05:33:19.412Z,4.65
2023-01-19T05:38:23.366Z,5.78
2023-01-19T05:43:35.323Z,5.28
2023-01-19T05:48:36.959Z,4.78
2023-01-19T05:53:35.601Z,5.05
2023-01-19T05:58:40.176Z,6.13
2023-01-19T06:03:41.603Z,5.95
2023-01-19T06:08:41.685Z,5.95
2023-01-19T06:13:42.279Z,7.07
2023-01-19T06:18:42.179Z,5.35
2023-01-19T06:23:45.417Z,5.32
2023-01-19T06:28:46.717Z,5.80
2023-01-19T06:33:50.418Z,5.90
2023-01-19T06:38:49.786Z,7.15
2023-01-19T06:43:50.487Z,6.85
2023-01-19T06:48:49.451Z,6.70
2023-01-19T06:53:51.135Z,6.55
2023-01-19T06:58:55.451Z,6.88
2023-01-19T07:03:57.232Z,5.82
2023-01-19T07:08:58.193Z,4.97
2023-01-19T07:14:06.282Z,6.03
2023-01-19T07:19:05.753Z,5.80
2023-01-19T07:24:24.067Z,5.03
2023-01-19T07:29:25.536Z,6.43
2023-01-19T07:34:28.390Z,6.88
2023-01-19T07:39:26.629Z,5.55
2023-01-19T07:44:25.641Z,4.75
2023-01-19T07:49:27.201Z,8.32
2023-01-19T07:54:26.505Z,5.40
2023-01-19T07:59:27.863Z,5.68
2023-01-19T08:04:28.044Z,6.78
2023-01-19T08:09:29.331Z,5.35
2023-01-19T08:14:27.498Z,6.60
2023-01-19T08:19:26.670Z,5.57
2023-01-19T08:24:28.728Z,6.20
2023-01-19T08:29:35.549Z,8.68
2023-01-19T08:34:39.289Z,8.05
2023-01-19T08:39:40.964Z,7.63
2023-01-19T08:44:57.399Z,5.00
2023-01-19T08:50:06.774Z,5.50
2023-01-19T08:55:06.247Z,5.60
2023-01-19T09:00:08.130Z,6.72
2023-01-19T09:05:10.527Z,5.40
2023-01-19T09:10:17.708Z,6.38
2023-01-19T09:15:25.759Z,6.80
2023-01-19T09:20:24.462Z,4.80
2023-01-19T09:25:27.531Z,7.68
2023-01-19T09:30:27.947Z,7.45
2023-01-19T09:35:28.367Z,6.57
2023-01-19T09:40:27.871Z,7.30
2023-01-19T09:45:47.674Z,7.47
2023-01-19T09:50:48.588Z,7.05
2023-01-19T09:55:51.384Z,7.28
2023-01-19T10:01:03.817Z,6.10
2023-01-19T10:06:05.525Z,7.68
2023-01-19T10:11:06.676Z,6.65
2023-01-19T10:16:24.474Z,7.05
2023-01-19T10:21:30.240Z,8.55
2023-01-19T10:26:39.458Z,7.65
2023-01-19T10:31:39.108Z,6.03
2023-01-19T10:36:40.559Z,5.80
2023-01-19T10:41:53.328Z,6.82
2023-01-19T10:46:54.504Z,6.80
2023-01-19T10:51:55.304Z,6.47
2023-01-19T10:57:05.341Z,6.63
2023-01-19T11:02:14.041Z,6.40
2023-01-19T11:07:20.047Z,6.28
2023-01-19T11:12:23.869Z,5.65
2023-01-19T11:17:31.003Z,5.15
2023-01-19T11:22:34.280Z,3.92
2023-01-19T11:27:35.376Z,6.88
2023-01-19T11:32:37.254Z,6.82
2023-01-19T11:37:37.595Z,5.57
2023-01-19T11:42:37.360Z,5.20
2023-01-19T11:47:44.440Z,6.60
2023-01-19T11:52:48.656Z,5.72
2023-01-19T11:57:52.820Z,4.78
2023-01-19T12:03:05.911Z,5.38
2023-01-19T12:08:08.155Z,4.50
2023-01-19T12:13:15.515Z,4.85
2023-01-19T12:18:30.274Z,5.93
2023-01-19T12:23:57.460Z,5.30
2023-01-19T12:29:01.570Z,5.53
2023-01-19T12:34:25.468Z,4.93
2023-01-19T12:39:26.681Z,4.18
2023-01-19T12:44:30.627Z,4.22
2023-01-19T12:49:43.994Z,4.20
2023-01-19T12:54:54.774Z,4.93
2023-01-19T13:00:02.061Z,5.07
2023-01-19T13:05:17.528Z,5.65
2023-01-19T13:10:55.550Z,5.03
2023-01-19T13:15:57.774Z,5.43
2023-01-19T13:21:10.164Z,4.18
2023-01-19T13:26:17.991Z,4.50
2023-01-19T13:31:21.385Z,4.57
2023-01-19T13:36:26.377Z,4.70
2023-01-19T13:41:43.808Z,4.35
2023-01-19T13:46:43.103Z,3.55
2023-01-19T13:51:43.048Z,4.47
2023-01-19T13:56:51.569Z,4.22
2023-01-19T14:01:51.606Z,4.70
2023-01-19T14:06:55.745Z,3.50
2023-01-19T14:17:29.350Z,4.85
2023-01-19T14:22:44.229Z,3.65
2023-01-19T14:27:42.085Z,4.45
2023-01-19T14:33:07.108Z,3.92
2023-01-19T14:38:11.460Z,3.58
2023-01-19T14:43:12.488Z,3.63
2023-01-19T14:48:31.791Z,3.03
2023-01-19T14:53:43.893Z,3.20
2023-01-19T14:58:46.867Z,4.03
2023-01-19T15:03:48.276Z,2.88
2023-01-19T15:09:14.120Z,4.47
2023-01-19T15:14:18.368Z,3.30
2023-01-19T15:19:21.063Z,3.40
2023-01-19T15:24:21.935Z,4.50
2023-01-19T15:29:25.434Z,3.22
2023-01-19T15:34:24.795Z,3.53
2023-01-19T15:39:32.539Z,3.53
2023-01-19T15:44:32.913Z,3.05
2023-01-19T15:49:34.068Z,5.30
2023-01-19T15:54:34.291Z,2.30
2023-01-19T15:59:34.358Z,3.15
2023-01-19T16:04:35.039Z,3.00
2023-01-19T16:09:35.531Z,3.80
2023-01-19T16:14:34.710Z,3.40
2023-01-19T16:19:32.710Z,2.65
2023-01-19T16:24:34.459Z,2.38
2023-01-19T16:29:34.302Z,3.08
2023-01-19T16:34:34.372Z,2.03
2023-01-19T16:39:34.109Z,2.40
2023-01-19T16:44:34.631Z,2.83
2023-01-19T16:49:38.086Z,2.33
2023-01-19T16:54:39.246Z,2.45
2023-01-19T16:59:40.082Z,2.75
2023-01-19T17:04:37.818Z,2.55
2023-01-19T17:10:07.180Z,2.35
2023-01-19T17:15:06.594Z,2.83
2023-01-19T17:20:06.244Z,3.40
2023-01-19T17:25:05.249Z,2.72
2023-01-19T17:30:04.661Z,3.38
2023-01-19T17:35:04.075Z,3.17
2023-01-19T17:40:09.066Z,3.47
2023-01-19T17:45:08.929Z,3.03
2023-01-19T17:50:56.252Z,2.40
2023-01-19T17:56:22.449Z,3.47
2023-01-19T18:01:28.952Z,2.63
2023-01-19T18:06:35.664Z,2.20
2023-01-19T18:11:42.794Z,2.67
2023-01-19T18:16:43.317Z,2.65
2023-01-19T18:21:48.557Z,3.38
2023-01-19T18:26:50.829Z,3.15
2023-01-19T18:31:52.015Z,3.38
2023-01-19T18:42:58.038Z,2.42
2023-01-19T18:48:15.478Z,3.40
2023-01-19T18:53:35.010Z,3.10
2023-01-19T18:58:52.906Z,2.75
2023-01-19T19:03:54.942Z,2.65
2023-01-19T19:09:00.908Z,2.63
2023-01-19T19:14:11.398Z,2.38
2023-01-19T19:19:16.674Z,1.95
2023-01-19T19:24:16.809Z,2.85
2023-01-19T19:29:44.274Z,2.38
2023-01-19T19:34:56.817Z,1.77
2023-01-19T19:39:57.978Z,1.88
2023-01-19T19:45:00.393Z,3.17
2023-01-19T19:50:05.968Z,1.90
2023-01-19T19:55:15.311Z,2.92
2023-01-19T20:00:16.614Z,1.92
2023-01-19T20:05:30.849Z,2.33
2023-01-19T20:10:40.599Z,3.10
2023-01-19T20:15:49.566Z,3.40
2023-01-19T20:20:50.668Z,3.10
2023-01-19T20:25:53.536Z,5.10
2023-01-19T20:30:55.465Z,3.83
2023-01-19T20:35:57.688Z,3.47
2023-01-19T20:41:01.776Z,2.85
2023-01-19T20:51:21.024Z,2.35
2023-01-19T20:56:20.967Z,1.50
2023-01-19T21:01:25.231Z,1.48
2023-01-19T21:06:26.647Z,1.48
2023-01-19T21:11:31.567Z,1.23
2023-01-19T21:16:39.778Z,1.98
2023-01-19T21:21:39.073Z,1.75
2023-01-19T21:26:57.850Z,1.35
2023-01-19T21:32:01.709Z,2.42
2023-01-19T21:37:03.565Z,3.15
2023-01-19T21:42:03.190Z,1.30
2023-01-19T21:47:18.145Z,2.53
2023-01-19T21:52:23.632Z,3.15
2023-01-19T21:57:36.423Z,2.92
2023-01-19T22:02:39.931Z,3.50
2023-01-19T22:07:41.785Z,3.88
2023-01-19T22:12:45.046Z,3.35
2023-01-19T22:17:54.275Z,1.70
2023-01-19T22:23:17.326Z,1.60
2023-01-19T22:28:21.084Z,1.75
2023-01-19T22:33:31.734Z,1.65
2023-01-19T22:38:53.442Z,1.50
2023-01-19T22:43:56.918Z,1.33
2023-01-19T22:48:59.597Z,1.30
2023-01-19T22:54:01.439Z,1.63
2023-01-19T22:59:00.950Z,1.85
2023-01-19T23:04:04.987Z,1.88
2023-01-19T23:14:13.519Z,3.30
2023-01-19T23:19:19.043Z,2.80
2023-01-19T23:24:24.697Z,3.10
2023-01-19T23:29:29.493Z,2.65
2023-01-19T23:34:30.562Z,2.40
2023-01-19T23:39:29.457Z,2.40
2023-01-19T23:44:29.660Z,2.15
2023-01-19T23:49:29.035Z,2.53
2023-01-19T23:54:31.898Z,2.55
2023-01-19T23:59:33.208Z,2.80
